METAR Data
IDs: Format: Raw Decoded Include TAF

Data at: 2223 UTC 01 Dec 2021

LIBP 012150Z AUTO 23012KT 9999 BKN086/// 15/05 Q1008